sensor_id;sensor_type;location;lat;lon;timestamp;pressure;altitude;pressure_sealevel;temperature;humidity
75008;BME280;63554;48.940;12.050;2024-01-07T00:02:26;96581.09;;;2.16;100.00
75008;BME280;63554;48.940;12.050;2024-01-07T00:06:28;96593.59;;;2.15;100.00
75008;BME280;63554;48.940;12.050;2024-01-07T00:10:31;96597.00;;;2.09;100.00
75008;BME280;63554;48.940;12.050;2024-01-07T00:14:34;96589.19;;;2.08;100.00
75008;BME280;63554;48.940;12.050;2024-01-07T00:18:38;96599.22;;;2.06;100.00
75008;BME280;63554;48.940;12.050;2024-01-07T00:22:41;96598.84;;;2.09;100.00
75008;BME280;63554;48.940;12.050;2024-01-07T00:26:44;96593.53;;;2.09;100.00
75008;BME280;63554;48.940;12.050;2024-01-07T00:30:47;96593.53;;;2.09;100.00
75008;BME280;63554;48.940;12.050;2024-01-07T00:34:51;96597.66;;;2.11;100.00
75008;BME280;63554;48.940;12.050;2024-01-07T00:38:56;96600.31;;;2.11;100.00
75008;BME280;63554;48.940;12.050;2024-01-07T00:42:59;96601.34;;;2.10;100.00
75008;BME280;63554;48.940;12.050;2024-01-07T00:47:02;96601.34;;;2.10;100.00
75008;BME280;63554;48.940;12.050;2024-01-07T00:51:06;96599.03;;;2.07;100.00
75008;BME280;63554;48.940;12.050;2024-01-07T00:55:09;96608.72;;;2.08;100.00
75008;BME280;63554;48.940;12.050;2024-01-07T00:59:12;96605.31;;;2.14;100.00
75008;BME280;63554;48.940;12.050;2024-01-07T01:03:14;96605.31;;;2.14;100.00
75008;BME280;63554;48.940;12.050;2024-01-07T01:07:19;96611.19;;;2.10;100.00
75008;BME280;63554;48.940;12.050;2024-01-07T01:11:21;96616.72;;;2.08;100.00
75008;BME280;63554;48.940;12.050;2024-01-07T01:15:24;96612.19;;;2.09;100.00
75008;BME280;63554;48.940;12.050;2024-01-07T01:19:27;96619.38;;;2.08;100.00
75008;BME280;63554;48.940;12.050;2024-01-07T01:23:31;96624.34;;;2.11;100.00
75008;BME280;63554;48.940;12.050;2024-01-07T01:27:34;96626.09;;;2.04;100.00
75008;BME280;63554;48.940;12.050;2024-01-07T01:31:36;96620.94;;;2.03;100.00
75008;BME280;63554;48.940;12.050;2024-01-07T01:35:39;96624.09;;;2.06;100.00
75008;BME280;63554;48.940;12.050;2024-01-07T01:39:43;96623.63;;;2.03;100.00
75008;BME280;63554;48.940;12.050;2024-01-07T01:43:46;96622.34;;;1.98;100.00
75008;BME280;63554;48.940;12.050;2024-01-07T01:47:49;96616.19;;;1.98;100.00
75008;BME280;63554;48.940;12.050;2024-01-07T01:51:52;96631.16;;;1.99;100.00
75008;BME280;63554;48.940;12.050;2024-01-07T01:55:57;96620.66;;;1.97;100.00
75008;BME280;63554;48.940;12.050;2024-01-07T02:00:01;96618.16;;;1.96;100.00
75008;BME280;63554;48.940;12.050;2024-01-07T02:04:06;96628.84;;;1.96;100.00
75008;BME280;63554;48.940;12.050;2024-01-07T02:08:09;96623.72;;;1.94;100.00
75008;BME280;63554;48.940;12.050;2024-01-07T02:12:14;96624.53;;;1.95;100.00
75008;BME280;63554;48.940;12.050;2024-01-07T02:16:17;96633.53;;;1.94;100.00
75008;BME280;63554;48.940;12.050;2024-01-07T02:20:19;96626.00;;;1.83;100.00
75008;BME280;63554;48.940;12.050;2024-01-07T02:24:24;96636.28;;;1.86;100.00
75008;BME280;63554;48.940;12.050;2024-01-07T02:28:27;96636.69;;;1.83;100.00
75008;BME280;63554;48.940;12.050;2024-01-07T02:32:29;96644.03;;;1.81;100.00
75008;BME280;63554;48.940;12.050;2024-01-07T02:36:36;96633.63;;;1.86;100.00
75008;BME280;63554;48.940;12.050;2024-01-07T02:40:40;96639.59;;;1.88;100.00
75008;BME280;63554;48.940;12.050;2024-01-07T02:44:43;96631.53;;;1.81;100.00
75008;BME280;63554;48.940;12.050;2024-01-07T02:48:45;96628.84;;;1.81;100.00
75008;BME280;63554;48.940;12.050;2024-01-07T02:52:48;96633.63;;;1.86;100.00
75008;BME280;63554;48.940;12.050;2024-01-07T02:56:52;96650.84;;;1.83;100.00
75008;BME280;63554;48.940;12.050;2024-01-07T03:00:55;96649.38;;;1.81;100.00
75008;BME280;63554;48.940;12.050;2024-01-07T03:04:59;96636.56;;;1.76;100.00
75008;BME280;63554;48.940;12.050;2024-01-07T03:09:02;96650.06;;;1.74;100.00
75008;BME280;63554;48.940;12.050;2024-01-07T03:13:08;96642.44;;;1.71;100.00
75008;BME280;63554;48.940;12.050;2024-01-07T03:17:11;96650.44;;;1.71;100.00
75008;BME280;63554;48.940;12.050;2024-01-07T03:21:17;96638.03;;;1.64;100.00
75008;BME280;63554;48.940;12.050;2024-01-07T03:25:21;96654.50;;;1.67;100.00
75008;BME280;63554;48.940;12.050;2024-01-07T03:29:25;96648.69;;;1.64;100.00
75008;BME280;63554;48.940;12.050;2024-01-07T03:33:27;96662.19;;;1.62;100.00
75008;BME280;63554;48.940;12.050;2024-01-07T03:37:30;96661.03;;;1.65;100.00
75008;BME280;63554;48.940;12.050;2024-01-07T03:41:33;96662.84;;;1.64;100.00
75008;BME280;63554;48.940;12.050;2024-01-07T03:45:37;96670.91;;;1.56;100.00
75008;BME280;63554;48.940;12.050;2024-01-07T03:49:40;96673.50;;;1.49;100.00
75008;BME280;63554;48.940;12.050;2024-01-07T03:53:42;96673.66;;;1.48;100.00
75008;BME280;63554;48.940;12.050;2024-01-07T03:57:45;96679.72;;;1.42;100.00
75008;BME280;63554;48.940;12.050;2024-01-07T04:01:49;96683.03;;;1.44;100.00
75008;BME280;63554;48.940;12.050;2024-01-07T04:05:52;96684.75;;;1.36;100.00
75008;BME280;63554;48.940;12.050;2024-01-07T04:09:55;96673.09;;;1.37;100.00
75008;BME280;63554;48.940;12.050;2024-01-07T04:13:58;96693.75;;;1.35;100.00
75008;BME280;63554;48.940;12.050;2024-01-07T04:18:02;96691.31;;;1.26;100.00
75008;BME280;63554;48.940;12.050;2024-01-07T04:22:05;96690.84;;;1.22;100.00
75008;BME280;63554;48.940;12.050;2024-01-07T04:26:08;96691.91;;;1.13;100.00
75008;BME280;63554;48.940;12.050;2024-01-07T04:30:11;96696.28;;;1.06;100.00
75008;BME280;63554;48.940;12.050;2024-01-07T04:34:15;96700.59;;;1.07;100.00
75008;BME280;63554;48.940;12.050;2024-01-07T04:38:18;96702.25;;;1.08;100.00
75008;BME280;63554;48.940;12.050;2024-01-07T04:42:21;96697.94;;;1.07;100.00
75008;BME280;63554;48.940;12.050;2024-01-07T04:46:24;96708.47;;;1.00;100.00
75008;BME280;63554;48.940;12.050;2024-01-07T04:50:28;96723.78;;;0.98;100.00
75008;BME280;63554;48.940;12.050;2024-01-07T04:54:31;96723.34;;;0.86;100.00
75008;BME280;63554;48.940;12.050;2024-01-07T04:58:33;96728.22;;;0.74;100.00
75008;BME280;63554;48.940;12.050;2024-01-07T05:02:36;96722.94;;;0.66;100.00
75008;BME280;63554;48.940;12.050;2024-01-07T05:06:40;96732.50;;;0.52;100.00
75008;BME280;63554;48.940;12.050;2024-01-07T05:10:43;96742.47;;;0.50;100.00
75008;BME280;63554;48.940;12.050;2024-01-07T05:14:45;96739.19;;;0.40;100.00
75008;BME280;63554;48.940;12.050;2024-01-07T05:18:49;96744.84;;;0.37;100.00
75008;BME280;63554;48.940;12.050;2024-01-07T05:22:53;96758.81;;;0.39;100.00
75008;BME280;63554;48.940;12.050;2024-01-07T05:26:56;96751.16;;;0.44;100.00
75008;BME280;63554;48.940;12.050;2024-01-07T05:30:58;96752.47;;;0.48;100.00
75008;BME280;63554;48.940;12.050;2024-01-07T05:35:01;96753.13;;;0.50;100.00
75008;BME280;63554;48.940;12.050;2024-01-07T05:39:05;96759.94;;;0.53;100.00
75008;BME280;63554;48.940;12.050;2024-01-07T05:43:09;96757.47;;;0.51;100.00
75008;BME280;63554;48.940;12.050;2024-01-07T05:47:11;96765.44;;;0.51;100.00
75008;BME280;63554;48.940;12.050;2024-01-07T05:51:14;96762.78;;;0.51;100.00
75008;BME280;63554;48.940;12.050;2024-01-07T05:55:18;96775.75;;;0.54;100.00
75008;BME280;63554;48.940;12.050;2024-01-07T05:59:21;96772.91;;;0.56;100.00
75008;BME280;63554;48.940;12.050;2024-01-07T06:03:24;96777.09;;;0.50;100.00
75008;BME280;63554;48.940;12.050;2024-01-07T06:07:27;96768.94;;;0.52;100.00
75008;BME280;63554;48.940;12.050;2024-01-07T06:11:32;96788.06;;;0.55;100.00
75008;BME280;63554;48.940;12.050;2024-01-07T06:15:35;96789.06;;;0.54;100.00
75008;BME280;63554;48.940;12.050;2024-01-07T06:19:38;96788.09;;;0.47;100.00
75008;BME280;63554;48.940;12.050;2024-01-07T06:23:41;96786.75;;;0.43;100.00
75008;BME280;63554;48.940;12.050;2024-01-07T06:27:45;96798.38;;;0.50;100.00
75008;BME280;63554;48.940;12.050;2024-01-07T06:31:47;96795.41;;;0.45;100.00
75008;BME280;63554;48.940;12.050;2024-01-07T06:35:51;96793.75;;;0.44;100.00
75008;BME280;63554;48.940;12.050;2024-01-07T06:39:53;96797.22;;;0.45;100.00
75008;BME280;63554;48.940;12.050;2024-01-07T06:43:57;96792.06;;;0.43;100.00
75008;BME280;63554;48.940;12.050;2024-01-07T06:48:00;96801.41;;;0.47;100.00
75008;BME280;63554;48.940;12.050;2024-01-07T06:52:04;96806.53;;;0.49;100.00
75008;BME280;63554;48.940;12.050;2024-01-07T06:56:07;96800.22;;;0.50;100.00
75008;BME280;63554;48.940;12.050;2024-01-07T07:00:12;96800.38;;;0.48;100.00
75008;BME280;63554;48.940;12.050;2024-01-07T07:04:15;96802.03;;;0.57;100.00
75008;BME280;63554;48.940;12.050;2024-01-07T07:08:18;96806.69;;;0.55;100.00
75008;BME280;63554;48.940;12.050;2024-01-07T07:12:20;96812.34;;;0.52;100.00
75008;BME280;63554;48.940;12.050;2024-01-07T07:16:24;96821.50;;;0.58;100.00
75008;BME280;63554;48.940;12.050;2024-01-07T07:20:27;96826.78;;;0.66;100.00
75008;BME280;63554;48.940;12.050;2024-01-07T07:24:31;96830.78;;;0.62;100.00
75008;BME280;63554;48.940;12.050;2024-01-07T07:28:34;96829.44;;;0.66;100.00
75008;BME280;63554;48.940;12.050;2024-01-07T07:32:40;96837.31;;;0.59;100.00
75008;BME280;63554;48.940;12.050;2024-01-07T07:36:44;96842.28;;;0.63;100.00
75008;BME280;63554;48.940;12.050;2024-01-07T07:40:46;96841.44;;;0.62;100.00
75008;BME280;63554;48.940;12.050;2024-01-07T07:44:54;96847.78;;;0.61;100.00
75008;BME280;63554;48.940;12.050;2024-01-07T07:48:58;96854.25;;;0.58;100.00
75008;BME280;63554;48.940;12.050;2024-01-07T07:53:02;96865.75;;;0.59;100.00
75008;BME280;63554;48.940;12.050;2024-01-07T07:57:05;96868.91;;;0.63;100.00
75008;BME280;63554;48.940;12.050;2024-01-07T08:01:08;96874.41;;;0.61;100.00
75008;BME280;63554;48.940;12.050;2024-01-07T08:05:12;96887.72;;;0.53;100.00
75008;BME280;63554;48.940;12.050;2024-01-07T08:09:15;96890.38;;;0.45;100.00
75008;BME280;63554;48.940;12.050;2024-01-07T08:13:18;96888.25;;;0.40;100.00
75008;BME280;63554;48.940;12.050;2024-01-07T08:17:20;96892.53;;;0.41;100.00
75008;BME280;63554;48.940;12.050;2024-01-07T08:21:24;96903.56;;;0.30;100.00
75008;BME280;63554;48.940;12.050;2024-01-07T08:25:28;96895.53;;;0.22;100.00
75008;BME280;63554;48.940;12.050;2024-01-07T08:29:31;96897.53;;;0.19;100.00
75008;BME280;63554;48.940;12.050;2024-01-07T08:33:34;96896.72;;;0.19;100.00
75008;BME280;63554;48.940;12.050;2024-01-07T08:37:38;96911.50;;;0.13;100.00
75008;BME280;63554;48.940;12.050;2024-01-07T08:41:41;96909.84;;;0.12;100.00
75008;BME280;63554;48.940;12.050;2024-01-07T08:45:44;96925.16;;;0.10;100.00
75008;BME280;63554;48.940;12.050;2024-01-07T08:49:46;96920.97;;;-0.01;100.00
75008;BME280;63554;48.940;12.050;2024-01-07T08:53:51;96923.59;;;-0.17;100.00
75008;BME280;63554;48.940;12.050;2024-01-07T08:57:53;96939.72;;;-0.18;100.00
75008;BME280;63554;48.940;12.050;2024-01-07T09:01:56;96946.19;;;-0.29;100.00
75008;BME280;63554;48.940;12.050;2024-01-07T09:05:59;96956.97;;;-0.31;100.00
75008;BME280;63554;48.940;12.050;2024-01-07T09:10:04;96963.28;;;-0.32;100.00
75008;BME280;63554;48.940;12.050;2024-01-07T09:14:12;96966.56;;;-0.38;100.00
75008;BME280;63554;48.940;12.050;2024-01-07T09:18:16;96977.38;;;-0.40;100.00
75008;BME280;63554;48.940;12.050;2024-01-07T09:22:20;96978.53;;;-0.42;100.00
75008;BME280;63554;48.940;12.050;2024-01-07T09:26:24;96980.22;;;-0.41;100.00
75008;BME280;63554;48.940;12.050;2024-01-07T09:30:27;96985.66;;;-0.51;100.00
75008;BME280;63554;48.940;12.050;2024-01-07T09:34:30;96984.28;;;-0.55;100.00
75008;BME280;63554;48.940;12.050;2024-01-07T09:38:32;96988.47;;;-0.52;100.00
75008;BME280;63554;48.940;12.050;2024-01-07T09:42:37;96986.44;;;-0.58;100.00
75008;BME280;63554;48.940;12.050;2024-01-07T09:46:41;96990.59;;;-0.56;100.00
75008;BME280;63554;48.940;12.050;2024-01-07T09:50:45;96991.78;;;-0.50;100.00
75008;BME280;63554;48.940;12.050;2024-01-07T09:54:51;96999.91;;;-0.52;100.00
75008;BME280;63554;48.940;12.050;2024-01-07T09:58:55;96997.09;;;-0.50;100.00
75008;BME280;63554;48.940;12.050;2024-01-07T10:02:58;96997.41;;;-0.53;100.00
75008;BME280;63554;48.940;12.050;2024-01-07T10:07:01;96996.41;;;-0.61;100.00
75008;BME280;63554;48.940;12.050;2024-01-07T10:11:04;97005.34;;;-0.27;100.00
75008;BME280;63554;48.940;12.050;2024-01-07T10:15:08;97012.13;;;-0.33;100.00
75008;BME280;63554;48.940;12.050;2024-01-07T10:19:11;97009.34;;;-0.23;100.00
75008;BME280;63554;48.940;12.050;2024-01-07T10:23:18;97011.97;;;-0.31;100.00
75008;BME280;63554;48.940;12.050;2024-01-07T10:27:22;97013.34;;;-0.53;100.00
75008;BME280;63554;48.940;12.050;2024-01-07T10:31:26;97017.31;;;-0.57;100.00
75008;BME280;63554;48.940;12.050;2024-01-07T10:35:33;97013.84;;;-0.58;100.00
75008;BME280;63554;48.940;12.050;2024-01-07T10:39:36;97019.00;;;-0.56;100.00
75008;BME280;63554;48.940;12.050;2024-01-07T10:43:39;97018.25;;;-0.67;100.00
75008;BME280;63554;48.940;12.050;2024-01-07T10:47:48;97009.72;;;-0.52;100.00
75008;BME280;63554;48.940;12.050;2024-01-07T10:51:59;97025.56;;;-0.43;100.00
75008;BME280;63554;48.940;12.050;2024-01-07T10:56:05;97029.34;;;-0.45;100.00
75008;BME280;63554;48.940;12.050;2024-01-07T11:00:11;97033.31;;;-0.49;100.00
75008;BME280;63554;48.940;12.050;2024-01-07T11:04:23;97029.50;;;-0.73;100.00
75008;BME280;63554;48.940;12.050;2024-01-07T11:08:34;97026.84;;;-0.73;100.00
75008;BME280;63554;48.940;12.050;2024-01-07T11:12:38;97037.50;;;-0.73;100.00
75008;BME280;63554;48.940;12.050;2024-01-07T11:16:42;97039.22;;;-0.64;100.00
75008;BME280;63554;48.940;12.050;2024-01-07T11:20:47;97044.34;;;-0.70;100.00
75008;BME280;63554;48.940;12.050;2024-01-07T11:24:50;97038.44;;;-0.82;100.00
75008;BME280;63554;48.940;12.050;2024-01-07T11:28:54;97046.75;;;-0.77;100.00
75008;BME280;63554;48.940;12.050;2024-01-07T11:32:58;97046.63;;;-0.75;100.00
75008;BME280;63554;48.940;12.050;2024-01-07T11:37:07;97050.72;;;-0.81;100.00
75008;BME280;63554;48.940;12.050;2024-01-07T11:41:12;97047.88;;;-0.88;100.00
75008;BME280;63554;48.940;12.050;2024-01-07T11:45:16;97047.88;;;-0.88;100.00
75008;BME280;63554;48.940;12.050;2024-01-07T11:49:18;97052.03;;;-0.85;100.00
75008;BME280;63554;48.940;12.050;2024-01-07T11:53:23;97050.25;;;-1.03;100.00
75008;BME280;63554;48.940;12.050;2024-01-07T11:57:25;97061.63;;;-1.10;100.00
75008;BME280;63554;48.940;12.050;2024-01-07T12:01:28;97066.78;;;-1.09;100.00
75008;BME280;63554;48.940;12.050;2024-01-07T12:05:31;97058.81;;;-1.09;100.00
75008;BME280;63554;48.940;12.050;2024-01-07T12:09:35;97071.34;;;-1.01;100.00
75008;BME280;63554;48.940;12.050;2024-01-07T12:13:38;97061.38;;;-0.99;100.00
75008;BME280;63554;48.940;12.050;2024-01-07T12:17:41;97072.91;;;-0.90;100.00
75008;BME280;63554;48.940;12.050;2024-01-07T12:21:43;97066.22;;;-0.94;100.00
75008;BME280;63554;48.940;12.050;2024-01-07T12:25:47;97072.75;;;-0.89;100.00
75008;BME280;63554;48.940;12.050;2024-01-07T12:29:54;97076.09;;;-0.87;100.00
75008;BME280;63554;48.940;12.050;2024-01-07T12:33:58;97084.63;;;-0.75;100.00
75008;BME280;63554;48.940;12.050;2024-01-07T12:38:02;97083.97;;;-0.77;100.00
75008;BME280;63554;48.940;12.050;2024-01-07T12:42:06;97082.84;;;-0.92;100.00
75008;BME280;63554;48.940;12.050;2024-01-07T12:46:10;97091.19;;;-0.87;100.00
75008;BME280;63554;48.940;12.050;2024-01-07T12:50:14;97093.78;;;-0.95;100.00
75008;BME280;63554;48.940;12.050;2024-01-07T12:54:17;97105.38;;;-0.96;100.00
75008;BME280;63554;48.940;12.050;2024-01-07T12:58:22;97095.78;;;-0.97;100.00
75008;BME280;63554;48.940;12.050;2024-01-07T13:02:25;97117.84;;;-0.97;100.00
75008;BME280;63554;48.940;12.050;2024-01-07T13:06:28;97113.53;;;-0.98;100.00
75008;BME280;63554;48.940;12.050;2024-01-07T13:10:31;97114.97;;;-1.04;100.00
75008;BME280;63554;48.940;12.050;2024-01-07T13:14:35;97117.72;;;-1.13;100.00
75008;BME280;63554;48.940;12.050;2024-01-07T13:18:37;97114.53;;;-1.17;100.00
75008;BME280;63554;48.940;12.050;2024-01-07T13:22:40;97121.34;;;-1.14;100.00
75008;BME280;63554;48.940;12.050;2024-01-07T13:26:43;97138.69;;;-1.20;100.00
75008;BME280;63554;48.940;12.050;2024-01-07T13:30:47;97135.06;;;-1.19;100.00
75008;BME280;63554;48.940;12.050;2024-01-07T13:34:51;97146.19;;;-1.33;100.00
75008;BME280;63554;48.940;12.050;2024-01-07T13:38:54;97145.84;;;-1.21;100.00
75008;BME280;63554;48.940;12.050;2024-01-07T13:42:56;97161.78;;;-1.21;100.00
75008;BME280;63554;48.940;12.050;2024-01-07T13:47:00;97155.38;;;-1.28;100.00
75008;BME280;63554;48.940;12.050;2024-01-07T13:51:04;97162.13;;;-1.33;100.00
75008;BME280;63554;48.940;12.050;2024-01-07T13:55:07;97165.69;;;-1.43;100.00
75008;BME280;63554;48.940;12.050;2024-01-07T13:59:12;97172.22;;;-1.37;100.00
75008;BME280;63554;48.940;12.050;2024-01-07T14:03:16;97169.03;;;-1.41;100.00
75008;BME280;63554;48.940;12.050;2024-01-07T14:07:20;97166.97;;;-1.47;100.00
75008;BME280;63554;48.940;12.050;2024-01-07T14:11:23;97172.97;;;-1.45;100.00
75008;BME280;63554;48.940;12.050;2024-01-07T14:15:28;97180.53;;;-1.50;100.00
75008;BME280;63554;48.940;12.050;2024-01-07T14:19:33;97185.28;;;-1.53;100.00
75008;BME280;63554;48.940;12.050;2024-01-07T14:23:35;97191.16;;;-1.50;100.00
75008;BME280;63554;48.940;12.050;2024-01-07T14:27:38;97195.16;;;-1.46;100.00
75008;BME280;63554;48.940;12.050;2024-01-07T14:31:41;97201.84;;;-1.42;100.00
75008;BME280;63554;48.940;12.050;2024-01-07T14:35:45;97204.50;;;-1.42;100.00
75008;BME280;63554;48.940;12.050;2024-01-07T14:39:48;97216.81;;;-1.41;100.00
75008;BME280;63554;48.940;12.050;2024-01-07T14:43:51;97211.50;;;-1.41;100.00
75008;BME280;63554;48.940;12.050;2024-01-07T14:47:55;97219.06;;;-1.46;100.00
75008;BME280;63554;48.940;12.050;2024-01-07T14:51:59;97233.75;;;-1.51;100.00
75008;BME280;63554;48.940;12.050;2024-01-07T14:56:02;97244.94;;;-1.57;100.00
75008;BME280;63554;48.940;12.050;2024-01-07T15:00:06;97244.66;;;-1.27;100.00
75008;BME280;63554;48.940;12.050;2024-01-07T15:04:09;97259.00;;;-1.47;100.00
75008;BME280;63554;48.940;12.050;2024-01-07T15:08:14;97255.31;;;-1.64;100.00
75008;BME280;63554;48.940;12.050;2024-01-07T15:12:17;97259.09;;;-1.76;100.00
75008;BME280;63554;48.940;12.050;2024-01-07T15:16:20;97255.06;;;-1.81;100.00
75008;BME280;63554;48.940;12.050;2024-01-07T15:20:22;97257.44;;;-1.77;100.00
75008;BME280;63554;48.940;12.050;2024-01-07T15:24:27;97268.50;;;-1.82;100.00
75008;BME280;63554;48.940;12.050;2024-01-07T15:28:29;97269.19;;;-1.80;100.00
75008;BME280;63554;48.940;12.050;2024-01-07T15:32:32;97271.56;;;-1.87;100.00
75008;BME280;63554;48.940;12.050;2024-01-07T15:36:35;97275.50;;;-1.91;100.00
75008;BME280;63554;48.940;12.050;2024-01-07T15:40:40;97277.00;;;-1.88;100.00
75008;BME280;63554;48.940;12.050;2024-01-07T15:44:43;97283.75;;;-1.94;100.00
75008;BME280;63554;48.940;12.050;2024-01-07T15:48:46;97285.81;;;-1.88;100.00
75008;BME280;63554;48.940;12.050;2024-01-07T15:52:49;97302.81;;;-1.81;100.00
75008;BME280;63554;48.940;12.050;2024-01-07T15:56:53;97298.91;;;-1.76;100.00
75008;BME280;63554;48.940;12.050;2024-01-07T16:00:57;97295.72;;;-1.43;100.00
75008;BME280;63554;48.940;12.050;2024-01-07T16:05:05;97299.88;;;-1.68;100.00
75008;BME280;63554;48.940;12.050;2024-01-07T16:09:08;97306.16;;;-1.79;100.00
75008;BME280;63554;48.940;12.050;2024-01-07T16:13:12;97308.84;;;-1.98;100.00
75008;BME280;63554;48.940;12.050;2024-01-07T16:17:15;97327.56;;;-2.00;100.00
75008;BME280;63554;48.940;12.050;2024-01-07T16:21:18;97338.31;;;-2.01;100.00
75008;BME280;63554;48.940;12.050;2024-01-07T16:25:22;97340.53;;;-2.06;100.00
75008;BME280;63554;48.940;12.050;2024-01-07T16:29:26;97352.16;;;-2.07;100.00
75008;BME280;63554;48.940;12.050;2024-01-07T16:33:46;97343.19;;;-2.16;100.00
75008;BME280;63554;48.940;12.050;2024-01-07T16:37:49;97343.91;;;-2.14;100.00
75008;BME280;63554;48.940;12.050;2024-01-07T16:41:52;97346.72;;;-2.15;100.00
75008;BME280;63554;48.940;12.050;2024-01-07T16:45:59;97350.88;;;-2.13;100.00
75008;BME280;63554;48.940;12.050;2024-01-07T16:50:03;97353.81;;;-2.16;99.13
75008;BME280;63554;48.940;12.050;2024-01-07T16:54:09;97361.34;;;-2.11;99.66
75008;BME280;63554;48.940;12.050;2024-01-07T16:58:13;97358.00;;;-2.23;98.92
75008;BME280;63554;48.940;12.050;2024-01-07T17:02:17;97370.41;;;-2.24;100.00
75008;BME280;63554;48.940;12.050;2024-01-07T17:06:21;97363.56;;;-2.26;100.00
75008;BME280;63554;48.940;12.050;2024-01-07T17:10:24;97379.59;;;-2.28;99.15
75008;BME280;63554;48.940;12.050;2024-01-07T17:14:26;97382.97;;;-2.26;99.52
75008;BME280;63554;48.940;12.050;2024-01-07T17:18:31;97373.34;;;-2.36;99.69
75008;BME280;63554;48.940;12.050;2024-01-07T17:22:34;97385.19;;;-2.41;99.43
75008;BME280;63554;48.940;12.050;2024-01-07T17:26:37;97393.84;;;-2.39;99.46
75008;BME280;63554;48.940;12.050;2024-01-07T17:30:40;97402.19;;;-2.33;98.72
75008;BME280;63554;48.940;12.050;2024-01-07T17:34:44;97413.09;;;-2.27;98.14
75008;BME280;63554;48.940;12.050;2024-01-07T17:38:47;97417.84;;;-2.30;97.89
75008;BME280;63554;48.940;12.050;2024-01-07T17:42:50;97423.00;;;-2.29;98.25
75008;BME280;63554;48.940;12.050;2024-01-07T17:46:54;97423.00;;;-2.29;97.15
75008;BME280;63554;48.940;12.050;2024-01-07T17:50:58;97430.53;;;-2.24;97.95
75008;BME280;63554;48.940;12.050;2024-01-07T17:55:05;97421.19;;;-2.28;97.22
75008;BME280;63554;48.940;12.050;2024-01-07T17:59:08;97427.91;;;-2.14;99.49
75008;BME280;63554;48.940;12.050;2024-01-07T18:03:12;97434.72;;;-2.02;98.37
75008;BME280;63554;48.940;12.050;2024-01-07T18:07:17;97438.34;;;-0.88;100.00
75008;BME280;63554;48.940;12.050;2024-01-07T18:11:20;97442.09;;;-0.90;100.00
75008;BME280;63554;48.940;12.050;2024-01-07T18:15:23;97451.50;;;-1.53;96.36
75008;BME280;63554;48.940;12.050;2024-01-07T18:19:26;97451.22;;;-1.89;96.01
75008;BME280;63554;48.940;12.050;2024-01-07T18:23:30;97464.19;;;-2.05;98.12
75008;BME280;63554;48.940;12.050;2024-01-07T18:27:33;97464.44;;;-2.18;97.75
75008;BME280;63554;48.940;12.050;2024-01-07T18:31:39;97462.88;;;-2.30;97.86
75008;BME280;63554;48.940;12.050;2024-01-07T18:35:41;97474.31;;;-2.30;97.21
75008;BME280;63554;48.940;12.050;2024-01-07T18:39:46;97478.22;;;-2.34;97.98
75008;BME280;63554;48.940;12.050;2024-01-07T18:43:48;97482.25;;;-2.40;97.57
75008;BME280;63554;48.940;12.050;2024-01-07T18:47:52;97477.78;;;-2.49;96.41
75008;BME280;63554;48.940;12.050;2024-01-07T18:51:55;97484.16;;;-2.51;97.08
75008;BME280;63554;48.940;12.050;2024-01-07T18:55:59;97490.75;;;-2.46;97.26
75008;BME280;63554;48.940;12.050;2024-01-07T19:00:02;97497.84;;;-2.46;96.58
75008;BME280;63554;48.940;12.050;2024-01-07T19:04:05;97503.16;;;-2.46;95.95
75008;BME280;63554;48.940;12.050;2024-01-07T19:08:08;97500.59;;;-2.58;95.37
75008;BME280;63554;48.940;12.050;2024-01-07T19:12:12;97513.38;;;-2.72;94.26
75008;BME280;63554;48.940;12.050;2024-01-07T19:16:15;97510.22;;;-2.87;93.61
75008;BME280;63554;48.940;12.050;2024-01-07T19:20:18;97525.63;;;-2.71;98.22
75008;BME280;63554;48.940;12.050;2024-01-07T19:24:21;97518.34;;;-2.79;93.84
75008;BME280;63554;48.940;12.050;2024-01-07T19:28:26;97524.75;;;-2.82;92.72
75008;BME280;63554;48.940;12.050;2024-01-07T19:32:29;97526.00;;;-2.86;94.72
75008;BME280;63554;48.940;12.050;2024-01-07T19:36:32;97529.16;;;-2.92;93.75
75008;BME280;63554;48.940;12.050;2024-01-07T19:40:35;97551.75;;;-2.88;94.31
75008;BME280;63554;48.940;12.050;2024-01-07T19:44:40;97554.84;;;-2.83;94.37
75008;BME280;63554;48.940;12.050;2024-01-07T19:48:44;97551.88;;;-2.89;92.22
75008;BME280;63554;48.940;12.050;2024-01-07T19:52:47;97556.13;;;-2.98;93.25
75008;BME280;63554;48.940;12.050;2024-01-07T19:56:49;97556.28;;;-3.00;94.73
75008;BME280;63554;48.940;12.050;2024-01-07T20:00:53;97557.84;;;-2.97;93.13
75008;BME280;63554;48.940;12.050;2024-01-07T20:04:56;97567.88;;;-3.12;90.68
75008;BME280;63554;48.940;12.050;2024-01-07T20:09:00;97572.09;;;-3.09;92.71
75008;BME280;63554;48.940;12.050;2024-01-07T20:13:02;97571.25;;;-3.10;92.51
75008;BME280;63554;48.940;12.050;2024-01-07T20:17:07;97575.91;;;-3.23;90.25
75008;BME280;63554;48.940;12.050;2024-01-07T20:21:20;97579.19;;;-3.31;92.15
75008;BME280;63554;48.940;12.050;2024-01-07T20:25:24;97582.53;;;-3.29;92.61
75008;BME280;63554;48.940;12.050;2024-01-07T20:29:28;97586.94;;;-3.39;91.10
75008;BME280;63554;48.940;12.050;2024-01-07T20:33:33;97591.06;;;-3.58;87.72
75008;BME280;63554;48.940;12.050;2024-01-07T20:37:37;97587.78;;;-3.82;85.67
75008;BME280;63554;48.940;12.050;2024-01-07T20:41:43;97599.22;;;-3.93;85.17
75008;BME280;63554;48.940;12.050;2024-01-07T20:45:46;97587.69;;;-4.03;86.39
75008;BME280;63554;48.940;12.050;2024-01-07T20:49:50;97589.50;;;-4.15;85.37
75008;BME280;63554;48.940;12.050;2024-01-07T20:53:53;97608.25;;;-4.29;84.84
75008;BME280;63554;48.940;12.050;2024-01-07T20:57:56;97610.91;;;-4.41;85.03
75008;BME280;63554;48.940;12.050;2024-01-07T21:01:59;97604.91;;;-4.43;84.34
75008;BME280;63554;48.940;12.050;2024-01-07T21:06:04;97610.88;;;-4.52;84.28